Time;durP1;ratioP1;P1;durP2;ratioP2;P2;SDS_P1;SDS_P2;PMS_P1;PMS_P2;Temp;Humidity;BMP_temperature;BMP_pressure;BME280_temperature;BME280_humidity;BME280_pressure;Samples;Min_cycle;Max_cycle;Signal;HPM_P1;HPM_P2
2021/11/11 00:00:25;;;;;;;4.30;2.60;;;;;;;-2.89;65.73;100197.20;100941;1331;61194;-23
2021/11/11 00:02:53;;;;;;;7.20;3.30;;;;;;;-2.96;65.95;100196.08;101050;1324;74874;-24
2021/11/11 00:05:23;;;;;;;7.00;3.10;;;;;;;-2.78;66.50;100197.79;101046;1323;76526;-24
2021/11/11 00:07:52;;;;;;;7.70;3.00;;;;;;;-1.94;64.95;100200.88;101601;1319;74184;-24
2021/11/11 00:10:21;;;;;;;8.90;4.20;;;;;;;-1.53;63.55;100197.65;101612;1322;62667;-24
2021/11/11 00:12:51;;;;;;;7.10;2.70;;;;;;;-1.58;63.11;100192.95;101659;1318;61162;-25
2021/11/11 00:15:19;;;;;;;5.20;3.10;;;;;;;-1.80;63.18;100195.27;101473;1320;73422;-23
2021/11/11 00:17:48;;;;;;;9.00;3.10;;;;;;;-2.05;63.66;100192.31;101638;1324;74647;-23
2021/11/11 00:20:18;;;;;;;6.30;2.80;;;;;;;-2.27;64.35;100187.29;101808;1317;71508;-23
2021/11/11 00:22:46;;;;;;;5.90;2.40;;;;;;;-2.46;64.82;100186.29;101766;1323;61241;-23
2021/11/11 00:25:15;;;;;;;5.20;2.60;;;;;;;-2.62;65.45;100178.95;101763;1323;61109;-23
2021/11/11 00:27:44;;;;;;;5.20;3.20;;;;;;;-2.73;65.68;100174.98;101741;1320;75406;-24
2021/11/11 00:30:14;;;;;;;6.40;3.20;;;;;;;-2.83;65.76;100168.25;101761;1325;76128;-23
2021/11/11 00:32:42;;;;;;;10.10;4.40;;;;;;;-2.96;66.37;100165.98;101598;1325;74439;-23
2021/11/11 00:35:13;;;;;;;6.60;3.70;;;;;;;-3.07;66.50;100162.15;101784;1323;61199;-23
2021/11/11 00:37:41;;;;;;;6.60;2.40;;;;;;;-3.15;67.26;100158.31;101613;1324;61511;-23
2021/11/11 00:40:11;;;;;;;9.40;4.60;;;;;;;-3.20;67.53;100157.50;101776;1317;75408;-23
2021/11/11 00:42:39;;;;;;;10.60;2.80;;;;;;;-3.22;67.44;100156.15;101642;1323;75282;-23
2021/11/11 00:45:07;;;;;;;8.70;3.70;;;;;;;-2.62;67.11;100162.61;101728;1317;74360;-26
2021/11/11 00:47:36;;;;;;;7.60;4.20;;;;;;;-1.85;64.93;100162.14;101718;1317;61205;-26
2021/11/11 00:50:05;;;;;;;6.10;3.60;;;;;;;-1.68;64.23;100162.09;101780;1324;62086;-30
2021/11/11 00:52:34;;;;;;;4.60;2.00;;;;;;;-1.82;63.85;100156.48;101489;1320;73824;-25
2021/11/11 00:55:03;;;;;;;6.90;2.10;;;;;;;-2.07;64.31;100151.16;101706;1317;76131;-25
2021/11/11 00:57:42;;;;;;;6.40;2.70;;;;;;;-2.34;65.04;100147.55;101324;1324;74394;-23
2021/11/11 01:00:12;;;;;;;6.40;2.90;;;;;;;-2.55;65.61;100141.30;101661;1318;61071;-25
2021/11/11 01:02:40;;;;;;;7.00;3.80;;;;;;;-2.71;66.25;100141.29;101818;1319;61225;-27
2021/11/11 01:05:09;;;;;;;7.20;3.00;;;;;;;-2.83;66.60;100137.83;101779;1319;72128;-25
2021/11/11 01:07:54;;;;;;;7.40;2.90;;;;;;;-2.94;67.09;100140.65;101764;1320;76155;-24
2021/11/11 01:10:24;;;;;;;6.60;3.30;;;;;;;-3.03;67.49;100139.86;101756;1317;73452;-24
2021/11/11 01:12:53;;;;;;;6.40;3.00;;;;;;;-3.13;67.68;100136.05;101736;1317;61916;-24
2021/11/11 01:15:24;;;;;;;5.30;3.00;;;;;;;-3.23;67.95;100129.14;101733;1317;61190;-25
2021/11/11 01:17:52;;;;;;;6.90;1.80;;;;;;;-3.16;68.37;100124.85;101753;1320;73973;-25
2021/11/11 01:20:21;;;;;;;4.90;2.80;;;;;;;-2.36;66.97;100126.98;101769;1317;76262;-25
2021/11/11 01:22:50;;;;;;;7.30;3.60;;;;;;;-1.80;65.13;100120.52;101715;1317;72346;-24
2021/11/11 01:25:19;;;;;;;7.10;3.50;;;;;;;-1.74;64.55;100118.07;101771;1320;61273;-25
2021/11/11 01:27:49;;;;;;;5.30;2.20;;;;;;;-1.92;64.53;100111.50;101730;1324;61966;-23
2021/11/11 01:30:23;;;;;;;7.40;3.10;;;;;;;-2.15;65.32;100102.41;101721;1317;74624;-24
2021/11/11 01:32:57;;;;;;;5.90;3.70;;;;;;;-2.35;66.04;100105.90;101777;1320;75857;-23
2021/11/11 01:35:26;;;;;;;6.20;2.80;;;;;;;-2.54;66.49;100105.08;101746;1319;73491;-23
2021/11/11 01:37:56;;;;;;;8.90;4.40;;;;;;;-2.67;67.31;100098.59;101761;1321;61167;-28
2021/11/11 01:40:25;;;;;;;13.00;3.90;;;;;;;-2.78;67.81;100093.42;101471;1317;62343;-24
2021/11/11 01:42:56;;;;;;;4.30;2.90;;;;;;;-2.88;67.78;100086.05;101757;1316;74577;-24
2021/11/11 01:45:35;;;;;;;4.80;3.40;;;;;;;-2.94;68.65;100081.67;101772;1317;75922;-24
2021/11/11 01:48:09;;;;;;;;;;;;;;;-2.35;67.87;100071.52;101648;1317;73594;-24
2021/11/11 01:50:39;;;;;;;9.80;2.90;;;;;;;-1.79;65.80;100072.67;101711;1323;61410;-23
2021/11/11 01:53:11;;;;;;;8.60;4.40;;;;;;;-1.70;65.28;100065.73;101759;1317;61193;-25
2021/11/11 01:55:42;;;;;;;6.50;3.20;;;;;;;-1.82;65.29;100058.08;101688;1323;74854;-24
2021/11/11 01:58:10;;;;;;;6.50;2.90;;;;;;;-2.02;65.76;100059.71;101741;1319;75349;-24
2021/11/11 02:00:55;;;;;;;6.60;3.80;;;;;;;-2.20;66.48;100053.66;101712;1319;74165;-24
2021/11/11 02:03:30;;;;;;;7.20;4.00;;;;;;;-2.37;67.03;100047.23;101772;1319;61138;-24
2021/11/11 02:06:07;;;;;;;4.40;3.10;;;;;;;-2.51;67.97;100047.05;101791;1317;61119;-28
2021/11/11 02:09:14;;;;;;;9.10;4.70;;;;;;;-2.53;68.62;100041.64;101546;1317;75918;-23
2021/11/11 02:12:06;;;;;;;9.00;4.10;;;;;;;-1.82;66.91;100037.65;101802;1317;75814;-24
2021/11/11 02:14:35;;;;;;;11.70;5.10;;;;;;;-1.53;65.57;100036.38;101776;1318;70513;-24
2021/11/11 02:17:05;;;;;;;5.70;4.20;;;;;;;-1.59;65.49;100030.16;101771;1319;61944;-24
2021/11/11 02:19:43;;;;;;;6.50;3.60;;;;;;;-1.76;66.19;100035.52;101754;1321;61498;-24
2021/11/11 02:22:12;;;;;;;5.00;2.80;;;;;;;-1.95;66.50;100037.16;101677;1325;74031;-24
2021/11/11 02:24:42;;;;;;;7.30;3.10;;;;;;;-2.09;67.16;100042.11;101715;1319;76261;-24
2021/11/11 02:27:13;;;;;;;11.60;5.30;;;;;;;-2.27;67.54;100047.10;101839;1316;74420;-24
2021/11/11 02:29:42;;;;;;;6.70;4.50;;;;;;;-2.38;68.15;100053.88;101730;1317;61238;-23
2021/11/11 02:32:17;;;;;;;13.80;3.40;;;;;;;-2.28;68.53;100051.71;101738;1319;61193;-24
2021/11/11 02:34:46;;;;;;;9.40;4.40;;;;;;;-1.70;67.10;100050.93;101750;1317;73003;-23
2021/11/11 02:37:15;;;;;;;4.70;2.50;;;;;;;-1.50;66.12;100049.42;101702;1322;76071;-24
2021/11/11 02:40:06;;;;;;;4.40;2.50;;;;;;;-1.64;66.24;100048.45;101703;1317;73522;-23
2021/11/11 02:42:40;;;;;;;8.90;4.50;;;;;;;-1.86;66.79;100048.11;101632;1317;61525;-23
2021/11/11 02:45:28;;;;;;;7.40;4.00;;;;;;;-2.07;67.33;100045.82;101798;1320;61221;-23
2021/11/11 02:47:58;;;;;;;7.00;4.30;;;;;;;-2.26;68.12;100043.70;101739;1320;73889;-24
2021/11/11 02:50:28;;;;;;;4.40;2.60;;;;;;;-2.42;68.83;100046.96;101746;1317;75159;-23
2021/11/11 02:52:58;;;;;;;2.90;2.20;;;;;;;-2.56;69.69;100051.53;101684;1319;73070;-23
2021/11/11 02:55:27;;;;;;;8.50;3.90;;;;;;;-2.27;69.37;100060.70;101740;1323;61769;-23
2021/11/11 02:57:57;;;;;;;7.20;3.70;;;;;;;-1.57;67.39;100059.42;101743;1317;61547;-24
2021/11/11 03:00:32;;;;;;;8.20;3.90;;;;;;;-1.31;66.02;100055.26;101649;1319;73527;-23
2021/11/11 03:03:01;;;;;;;6.20;3.00;;;;;;;-1.37;65.95;100047.52;101461;1323;76747;-24
2021/11/11 03:05:33;;;;;;;6.30;4.20;;;;;;;-1.63;66.65;100043.66;101745;1320;74619;-24
2021/11/11 03:08:22;;;;;;;7.10;4.60;;;;;;;-1.90;67.45;100046.27;101627;1317;61450;-24
2021/11/11 03:10:53;;;;;;;5.50;3.20;;;;;;;-2.12;68.37;100047.42;101665;1320;61327;-25
2021/11/11 03:13:25;;;;;;;6.90;2.90;;;;;;;-2.28;68.88;100043.20;101710;1319;74587;-22
2021/11/11 03:16:00;;;;;;;7.10;3.60;;;;;;;-2.43;69.30;100037.77;101739;1317;74958;-24
2021/11/11 03:18:30;;;;;;;9.70;4.20;;;;;;;-2.34;69.87;100041.07;101651;1319;74460;-22
2021/11/11 03:21:00;;;;;;;3.70;2.10;;;;;;;-1.70;68.11;100042.58;101735;1322;61101;-23
2021/11/11 03:23:28;;;;;;;10.80;4.60;;;;;;;-1.47;67.02;100038.83;101599;1319;62426;-22
2021/11/11 03:25:58;;;;;;;10.50;4.00;;;;;;;-1.59;66.86;100034.91;101709;1317;74004;-22
2021/11/11 03:28:32;;;;;;;6.90;3.70;;;;;;;-1.86;67.53;100032.43;101745;1316;76665;-22
2021/11/11 03:31:01;;;;;;;8.10;4.70;;;;;;;-2.08;67.85;100022.37;101713;1319;74402;-22
2021/11/11 03:33:30;;;;;;;5.50;3.10;;;;;;;-2.34;68.64;100015.21;101745;1317;61132;-22
2021/11/11 03:35:59;;;;;;;7.80;3.50;;;;;;;-2.55;69.55;100009.88;101709;1317;61360;-24
2021/11/11 03:38:27;;;;;;;9.90;5.00;;;;;;;-2.73;70.53;100009.73;101653;1319;75612;-22
2021/11/11 03:41:01;;;;;;;6.80;3.50;;;;;;;-2.91;71.53;100015.88;101688;1317;74870;-22
2021/11/11 03:43:34;;;;;;;7.10;4.20;;;;;;;-2.40;70.58;100027.54;101718;1317;73472;-23
2021/11/11 03:46:12;;;;;;;6.60;3.40;;;;;;;-1.88;68.69;100031.27;101673;1317;61224;-23
2021/11/11 03:48:45;;;;;;;7.00;3.50;;;;;;;-1.96;68.56;100014.02;101739;1320;61175;-23
2021/11/11 03:51:14;;;;;;;5.80;3.10;;;;;;;-2.08;68.50;100007.73;101663;1319;72475;-23
2021/11/11 03:53:44;;;;;;;7.30;4.00;;;;;;;-2.32;69.02;100001.59;101766;1320;76126;-22
2021/11/11 03:56:13;;;;;;;7.00;4.20;;;;;;;-2.57;69.57;99991.86;101751;1319;74405;-22
2021/11/11 03:58:44;;;;;;;4.80;2.10;;;;;;;-2.81;70.37;99988.92;101800;1317;61730;-22
2021/11/11 04:01:13;;;;;;;6.70;3.20;;;;;;;-3.04;71.03;99977.77;101797;1316;61842;-22
2021/11/11 04:03:42;;;;;;;6.50;4.10;;;;;;;-3.24;71.33;99970.52;101703;1317;75736;-23
2021/11/11 04:06:10;;;;;;;8.10;3.60;;;;;;;-3.12;72.32;99966.30;101670;1323;74951;-22
2021/11/11 04:08:41;;;;;;;8.40;3.50;;;;;;;-2.44;70.93;99965.52;101632;1319;72911;-23
2021/11/11 04:11:10;;;;;;;7.70;3.90;;;;;;;-2.23;69.86;99967.96;101471;1319;61122;-22
2021/11/11 04:13:39;;;;;;;4.00;2.20;;;;;;;-2.29;69.85;99968.89;101624;1319;61159;-22
2021/11/11 04:16:27;;;;;;;5.40;3.40;;;;;;;-2.57;71.25;99968.75;101558;1317;75946;-22
2021/11/11 04:18:56;;;;;;;8.20;4.50;;;;;;;-2.72;71.63;99970.64;101706;1317;75262;-23
2021/11/11 04:21:25;;;;;;;4.10;3.10;;;;;;;-2.81;72.00;99967.00;101732;1317;73118;-23
2021/11/11 04:23:54;;;;;;;2.80;1.80;;;;;;;-2.90;72.35;99958.10;101724;1317;61270;-23
2021/11/11 04:26:26;;;;;;;4.40;2.90;;;;;;;-2.46;71.43;99969.45;101783;1317;62125;-23
2021/11/11 04:31:35;;;;;;;6.10;3.40;;;;;;;-1.79;69.03;99952.84;101691;1317;76128;-23
2021/11/11 04:34:11;;;;;;;5.80;3.30;;;;;;;-1.91;69.00;99944.84;101714;1316;74588;-22
2021/11/11 04:52:52;;;;;;;5.80;3.70;;;;;;;-2.15;69.71;99940.61;101905;1314;61093;-23
2021/11/11 05:06:03;;;;;;;5.80;3.00;;;;;;;-2.16;70.73;99944.02;102179;1313;61978;-22
2021/11/11 05:08:32;;;;;;;6.40;3.60;;;;;;;-1.97;69.74;99955.15;102251;1319;75984;-23
2021/11/11 05:11:01;;;;;;;6.10;3.20;;;;;;;-1.96;69.43;99964.33;102286;1312;76017;-24
2021/11/11 05:13:31;;;;;;;7.10;3.80;;;;;;;-2.11;69.54;99961.65;102110;1313;74427;-22
2021/11/11 05:16:01;;;;;;;6.00;3.40;;;;;;;-2.36;70.35;99950.95;102160;1312;61205;-23
2021/11/11 05:18:30;;;;;;;5.20;3.30;;;;;;;-2.57;71.11;99947.98;101896;1317;61370;-23
2021/11/11 05:21:03;;;;;;;7.30;4.30;;;;;;;-2.73;72.06;99946.85;101777;1314;73835;-23
2021/11/11 05:23:31;;;;;;;6.80;3.80;;;;;;;-2.42;71.70;99951.03;101942;1314;76607;-25
2021/11/11 05:25:59;;;;;;;7.30;3.00;;;;;;;-2.11;70.28;99959.95;102092;1317;74491;-23
2021/11/11 05:28:28;;;;;;;5.60;3.40;;;;;;;-2.09;70.28;99963.83;102136;1315;61085;-23
2021/11/11 05:30:58;;;;;;;5.60;3.30;;;;;;;-2.16;70.25;99967.67;102301;1313;62679;-23
2021/11/11 05:33:26;;;;;;;10.90;4.10;;;;;;;-2.37;71.14;99967.80;102212;1314;74315;-23
2021/11/11 05:35:54;;;;;;;13.50;4.70;;;;;;;-2.50;71.32;99967.98;102206;1313;74642;-23
2021/11/11 05:38:24;;;;;;;6.70;4.30;;;;;;;-2.61;71.71;99966.22;102307;1316;74302;-24
2021/11/11 05:40:53;;;;;;;3.40;2.50;;;;;;;-2.50;72.11;99968.65;102113;1313;61886;-23
2021/11/11 05:43:22;;;;;;;6.20;3.40;;;;;;;-1.80;70.20;99968.16;101879;1317;61107;-23
2021/11/11 05:45:51;;;;;;;4.00;2.80;;;;;;;-1.52;69.07;99959.54;102111;1313;74738;-23
2021/11/11 05:48:19;;;;;;;9.00;4.60;;;;;;;-1.59;68.90;99953.86;102269;1312;75866;-23
2021/11/11 05:50:48;;;;;;;4.30;2.70;;;;;;;-1.76;69.29;99948.19;102231;1314;71994;-23
2021/11/11 05:53:17;;;;;;;7.70;4.20;;;;;;;-2.01;70.10;99945.17;102201;1312;61087;-24
2021/11/11 05:55:45;;;;;;;5.60;3.70;;;;;;;-2.18;70.80;99942.02;102105;1313;61234;-23
2021/11/11 05:58:16;;;;;;;5.20;3.90;;;;;;;-2.33;71.51;99944.27;102023;1313;74420;-23
2021/11/11 06:00:44;;;;;;;9.60;4.80;;;;;;;-2.19;71.69;99952.58;102116;1312;76030;-23
2021/11/11 06:03:19;;;;;;;7.30;4.70;;;;;;;-1.50;69.86;99948.60;102148;1313;73350;-23
2021/11/11 06:05:54;;;;;;;5.00;3.60;;;;;;;-1.25;68.82;99949.01;101844;1314;61193;-23
2021/11/11 06:08:25;;;;;;;7.70;5.00;;;;;;;-1.36;68.84;99947.51;101864;1313;61434;-23
2021/11/11 06:10:53;;;;;;;4.60;2.90;;;;;;;-1.56;69.42;99940.36;102227;1314;75394;-23
2021/11/11 06:13:22;;;;;;;11.80;7.30;;;;;;;-1.63;69.79;99941.49;102187;1314;76287;-26
2021/11/11 06:15:53;;;;;;;9.80;5.70;;;;;;;-1.79;70.42;99942.77;102354;1317;74386;-27
2021/11/11 06:18:23;;;;;;;6.70;4.60;;;;;;;-1.86;70.81;99945.96;102258;1312;61152;-24
2021/11/11 06:21:00;;;;;;;7.70;3.90;;;;;;;-1.93;71.30;99946.40;102029;1312;61072;-23
2021/11/11 06:23:31;;;;;;;8.70;4.10;;;;;;;-1.53;70.70;99946.77;101750;1314;74631;-23
2021/11/11 06:26:00;;;;;;;8.50;4.50;;;;;;;-0.99;68.81;99946.48;102236;1317;76146;-28
2021/11/11 06:28:30;;;;;;;6.80;4.80;;;;;;;-0.97;68.59;99951.05;102289;1312;72255;-30
2021/11/11 06:31:01;;;;;;;8.90;4.40;;;;;;;-1.08;68.92;99949.55;102292;1317;61301;-29
2021/11/11 06:33:32;;;;;;;10.30;4.80;;;;;;;-1.15;69.24;99952.23;102219;1313;61078;-26
2021/11/11 06:36:00;;;;;;;6.40;4.80;;;;;;;-1.25;69.65;99946.11;102340;1312;74588;-26
2021/11/11 06:38:29;;;;;;;7.70;4.40;;;;;;;-1.27;69.83;99945.80;102307;1313;75060;-23
2021/11/11 06:40:57;;;;;;;9.70;6.20;;;;;;;-1.30;70.39;99942.80;102188;1315;73501;-23
2021/11/11 06:43:26;;;;;;;10.70;4.90;;;;;;;-1.21;70.34;99939.05;102272;1313;61127;-23
2021/11/11 06:45:55;;;;;;;9.20;4.30;;;;;;;-1.12;70.01;99934.45;102282;1312;62085;-23
2021/11/11 06:48:23;;;;;;;8.80;4.60;;;;;;;-1.15;70.57;99936.05;102277;1313;75408;-23
2021/11/11 06:50:52;;;;;;;7.90;4.40;;;;;;;-1.07;70.49;99931.64;102278;1314;76263;-23
2021/11/11 06:53:20;;;;;;;5.70;3.30;;;;;;;-1.02;70.40;99931.21;102166;1314;74887;-23
2021/11/11 06:55:52;;;;;;;7.80;4.30;;;;;;;-0.93;70.42;99929.48;102211;1312;61020;-23
2021/11/11 06:58:24;;;;;;;5.90;3.60;;;;;;;-0.78;69.83;99931.73;102215;1314;61205;-23
2021/11/11 07:00:57;;;;;;;6.50;4.60;;;;;;;-0.72;69.76;99923.09;102284;1314;73498;-23
2021/11/11 07:03:29;;;;;;;7.00;4.40;;;;;;;-0.63;69.46;99930.40;102050;1314;76022;-23
2021/11/11 07:05:59;;;;;;;10.20;6.40;;;;;;;-0.63;69.51;99926.31;102233;1316;74559;-23
2021/11/11 07:08:28;;;;;;;9.30;4.20;;;;;;;-0.63;69.88;99923.08;101837;1314;61184;-23
2021/11/11 07:10:56;;;;;;;4.90;3.70;;;;;;;-0.56;69.75;99926.34;102310;1313;62072;-23
2021/11/11 07:13:27;;;;;;;8.90;5.90;;;;;;;-0.42;69.58;99935.94;102271;1317;74614;-23
2021/11/11 07:15:56;;;;;;;8.40;4.90;;;;;;;-0.27;69.02;99937.82;102294;1313;75083;-23
2021/11/11 07:18:24;;;;;;;9.20;5.80;;;;;;;-0.22;68.83;99932.08;102092;1313;320198;-23
2021/11/11 07:20:53;;;;;;;9.10;6.20;;;;;;;-0.14;68.74;99928.82;102187;1317;61101;-23
2021/11/11 07:23:23;;;;;;;14.30;7.30;;;;;;;-0.05;68.54;99917.20;102310;1312;61885;-23
2021/11/11 07:25:51;;;;;;;13.80;5.80;;;;;;;-0.14;69.05;99922.67;102276;1315;75776;-23
2021/11/11 07:28:20;;;;;;;8.50;4.20;;;;;;;-0.08;69.21;99927.14;102300;1312;75128;-23
2021/11/11 07:30:49;;;;;;;9.10;5.60;;;;;;;0.04;68.87;99922.42;102294;1312;74361;-23
2021/11/11 07:33:30;;;;;;;8.10;5.40;;;;;;;0.24;68.55;99917.31;102062;1315;60973;-23
2021/11/11 07:36:02;;;;;;;9.60;4.80;;;;;;;0.34;68.22;99913.32;102084;1311;61808;-23
2021/11/11 07:38:31;;;;;;;10.10;4.00;;;;;;;0.54;67.59;99917.44;102257;1313;76080;-23
2021/11/11 07:40:59;;;;;;;7.30;4.50;;;;;;;0.67;67.20;99920.16;102258;1314;74900;-23
2021/11/11 07:43:28;;;;;;;7.20;4.50;;;;;;;0.81;66.98;99924.42;102309;1312;74045;-23
2021/11/11 07:46:03;;;;;;;10.30;5.60;;;;;;;0.97;66.60;99923.48;101926;1314;61126;-23
2021/11/11 07:48:34;;;;;;;7.30;3.90;;;;;;;1.15;65.78;99921.61;101911;1314;61142;-23
2021/11/11 07:51:05;;;;;;;4.90;3.90;;;;;;;1.21;65.74;99924.66;102280;1317;75486;-23
2021/11/11 07:53:33;;;;;;;12.60;7.00;;;;;;;1.32;65.45;99918.86;102003;1314;75157;-23
2021/11/11 07:56:02;;;;;;;10.50;6.50;;;;;;;1.40;64.95;99918.64;101965;1315;73516;-23
2021/11/11 07:58:30;;;;;;;8.60;5.60;;;;;;;1.42;65.29;99916.38;102013;1312;61125;-23
2021/11/11 08:00:59;;;;;;;8.30;4.10;;;;;;;1.42;65.02;99919.96;101912;1313;61215;-23
2021/11/11 08:03:28;;;;;;;10.20;6.30;;;;;;;1.47;65.27;99923.06;102004;1313;74800;-24
2021/11/11 08:05:57;;;;;;;7.10;3.90;;;;;;;1.60;65.23;99925.56;102231;1313;74583;-23
2021/11/11 08:08:28;;;;;;;8.50;4.50;;;;;;;1.73;64.78;99923.83;101977;1312;75107;-23
2021/11/11 08:11:00;;;;;;;7.70;5.40;;;;;;;1.74;64.89;99929.95;102028;1313;61126;-23
2021/11/11 08:13:28;;;;;;;6.00;3.80;;;;;;;1.80;64.61;99918.11;102009;1312;61361;-23
2021/11/11 08:15:57;;;;;;;7.10;4.10;;;;;;;1.82;64.65;99921.64;102114;1313;75608;-23
2021/11/11 08:18:25;;;;;;;11.00;6.20;;;;;;;1.92;64.37;99919.81;101955;1314;76124;-23
2021/11/11 08:20:54;;;;;;;6.40;4.30;;;;;;;2.17;64.01;99920.70;102057;1312;74568;-23
2021/11/11 08:23:23;;;;;;;10.30;5.90;;;;;;;2.41;63.21;99915.11;102008;1313;61500;-23
2021/11/11 08:25:51;;;;;;;9.80;6.30;;;;;;;2.60;62.44;99906.29;102016;1312;61044;-23
2021/11/11 08:28:21;;;;;;;13.00;7.60;;;;;;;2.66;62.27;99900.07;102013;1313;75406;-23
2021/11/11 08:30:49;;;;;;;9.10;6.10;;;;;;;2.77;62.73;99902.24;101995;1313;76090;-23
2021/11/11 08:33:21;;;;;;;8.80;5.70;;;;;;;2.94;61.86;99899.08;102265;1317;74276;-24
2021/11/11 08:35:53;;;;;;;15.50;8.40;;;;;;;3.03;61.76;99888.27;102255;1313;61712;-23
2021/11/11 08:38:22;;;;;;;8.60;5.90;;;;;;;3.12;61.37;99884.35;102357;1313;61100;-23
2021/11/11 08:40:50;;;;;;;13.50;6.70;;;;;;;3.04;61.30;99880.70;102221;1315;73674;-23
2021/11/11 08:43:20;;;;;;;11.30;6.80;;;;;;;3.03;61.77;99880.05;102219;1314;74567;-23
2021/11/11 08:45:49;;;;;;;9.10;6.00;;;;;;;3.11;61.08;99881.11;102251;1313;73710;-24
2021/11/11 08:48:18;;;;;;;9.80;6.10;;;;;;;3.18;61.68;99884.14;101934;1315;61522;-24
2021/11/11 08:50:47;;;;;;;6.70;3.70;;;;;;;3.29;61.09;99879.92;101925;1314;61147;-24
2021/11/11 08:53:17;;;;;;;10.10;5.70;;;;;;;3.32;61.29;99879.66;102235;1313;75977;-23
2021/11/11 08:55:47;;;;;;;9.40;7.30;;;;;;;3.43;61.04;99884.91;102090;1313;75966;-24
2021/11/11 08:58:15;;;;;;;9.90;6.10;;;;;;;3.31;61.31;99879.17;102190;1312;74638;-23
2021/11/11 09:00:46;;;;;;;10.50;6.50;;;;;;;3.54;61.12;99882.09;102123;1313;61179;-23
2021/11/11 09:03:15;;;;;;;17.00;8.70;;;;;;;3.71;60.23;99874.23;101796;1315;61428;-23
2021/11/11 09:05:44;;;;;;;12.00;8.20;;;;;;;3.89;59.90;99877.63;102220;1313;75423;-23
2021/11/11 09:08:14;;;;;;;5.40;3.80;;;;;;;4.11;59.41;99877.25;101987;1314;76073;-23
2021/11/11 09:10:43;;;;;;;9.60;6.10;;;;;;;4.22;59.08;99879.70;102260;1317;73859;-23
2021/11/11 09:13:29;;;;;;;8.50;6.30;;;;;;;4.35;58.65;99879.50;102227;1316;61112;-23
2021/11/11 09:15:58;;;;;;;16.00;6.90;;;;;;;4.36;58.74;99881.70;101978;1313;61272;-23
2021/11/11 09:18:29;;;;;;;12.10;7.80;;;;;;;4.44;58.87;99877.92;101698;1315;75465;-23
2021/11/11 09:21:03;;;;;;;9.00;6.40;;;;;;;4.75;57.79;99863.89;101750;1315;75124;-23
2021/11/11 09:23:33;;;;;;;12.30;5.90;;;;;;;4.82;57.54;99859.45;102104;1313;74226;-23
2021/11/11 09:26:02;;;;;;;7.10;4.50;;;;;;;4.83;57.73;99857.68;102169;1313;61226;-23
2021/11/11 09:28:31;;;;;;;13.90;6.30;;;;;;;5.11;56.92;99852.27;102281;1312;61826;-23
2021/11/11 09:30:59;;;;;;;10.30;5.90;;;;;;;5.34;56.29;99849.50;102246;1312;75996;-23
2021/11/11 09:33:28;;;;;;;8.00;5.30;;;;;;;5.48;55.87;99847.27;102323;1312;76110;-23
2021/11/11 09:35:57;;;;;;;8.40;5.10;;;;;;;5.62;55.50;99841.81;102094;1312;74331;-23
2021/11/11 09:38:26;;;;;;;11.60;6.30;;;;;;;5.69;55.27;99836.50;101954;1312;61766;-23
2021/11/11 09:40:55;;;;;;;6.80;4.40;;;;;;;5.46;55.61;99830.17;102114;1313;62073;-23
2021/11/11 09:43:35;;;;;;;8.00;5.40;;;;;;;5.52;56.03;99820.77;102045;1312;75671;-23
2021/11/11 09:46:05;;;;;;;11.80;6.20;;;;;;;5.77;55.06;99814.40;101764;1313;76109;-24
2021/11/11 09:48:34;;;;;;;7.30;5.10;;;;;;;5.84;54.60;99813.18;102210;1312;74594;-24
2021/11/11 09:51:03;;;;;;;10.90;6.10;;;;;;;5.80;54.81;99812.33;102212;1313;61915;-23
2021/11/11 09:53:35;;;;;;;10.70;6.10;;;;;;;6.02;54.49;99807.47;102015;1313;61208;-23
2021/11/11 09:58:51;;;;;;;9.40;6.20;;;;;;;6.33;53.38;99784.69;102182;1314;76218;-23
2021/11/11 10:01:22;;;;;;;6.20;4.60;;;;;;;6.44;54.01;99773.42;102284;1312;73765;-23
2021/11/11 10:03:51;;;;;;;8.70;5.50;;;;;;;6.57;53.58;99775.23;102181;1313;61770;-23
2021/11/11 10:06:25;;;;;;;6.90;4.80;;;;;;;6.37;53.62;99777.60;102242;1314;62445;-23
2021/11/11 10:08:55;;;;;;;9.00;5.30;;;;;;;6.24;53.70;99783.64;101884;1315;72567;-23
2021/11/11 10:11:31;;;;;;;7.40;4.60;;;;;;;6.32;53.66;99790.46;102200;1316;75858;-23
2021/11/11 10:14:04;;;;;;;12.00;7.10;;;;;;;6.30;53.56;99782.80;102186;1314;74411;-23
2021/11/11 10:16:37;;;;;;;7.80;6.00;;;;;;;6.01;54.46;99778.04;101921;1315;61240;-23
2021/11/11 10:19:05;;;;;;;10.30;6.50;;;;;;;5.94;54.62;99769.80;102174;1313;61188;-23
2021/11/11 10:21:48;;;;;;;9.40;5.90;;;;;;;5.77;55.33;99767.50;102237;1314;75694;-23
2021/11/11 10:24:48;;;;;;;10.10;4.70;;;;;;;5.74;55.02;99770.45;102198;1312;75351;-23
2021/11/11 10:27:33;;;;;;;9.10;5.20;;;;;;;5.74;55.11;99763.54;101968;1317;74857;-23
2021/11/11 10:30:24;;;;;;;10.00;5.50;;;;;;;5.72;55.17;99761.91;101876;1316;61140;-23
2021/11/11 10:33:05;;;;;;;10.80;6.60;;;;;;;5.72;55.38;99757.77;101740;1314;61175;-23
2021/11/11 10:35:36;;;;;;;8.00;4.90;;;;;;;5.64;55.07;99752.83;101926;1312;75755;-23
2021/11/11 10:38:14;;;;;;;8.20;4.80;;;;;;;5.64;55.33;99748.51;102054;1312;76003;-24
2021/11/11 10:40:45;;;;;;;10.40;5.60;;;;;;;5.64;55.60;99748.34;102210;1314;74460;-23
2021/11/11 10:43:21;;;;;;;12.30;7.60;;;;;;;5.62;55.20;99746.37;102197;1312;61192;-23
2021/11/11 10:45:52;;;;;;;9.70;4.70;;;;;;;5.66;55.69;99740.36;101930;1316;62061;-23
2021/11/11 10:48:23;;;;;;;8.40;4.90;;;;;;;5.75;55.44;99741.44;102165;1312;75903;-23
2021/11/11 10:50:55;;;;;;;8.70;5.60;;;;;;;5.72;55.34;99740.54;102182;1313;76048;-23
2021/11/11 10:53:26;;;;;;;15.30;9.50;;;;;;;5.79;55.47;99737.93;101890;1315;73219;-23
2021/11/11 10:55:58;;;;;;;12.50;10.30;;;;;;;5.83;55.43;99739.84;101912;1312;61527;-23
2021/11/11 10:58:28;;;;;;;12.40;9.20;;;;;;;5.85;55.50;99735.95;101753;1315;61107;-23
2021/11/11 11:01:11;;;;;;;8.90;5.70;;;;;;;5.86;55.13;99737.10;101730;1314;73697;-23
2021/11/11 11:03:42;;;;;;;10.90;7.10;;;;;;;5.87;55.18;99738.07;101880;1314;75298;-23
2021/11/11 11:06:12;;;;;;;6.50;4.60;;;;;;;6.03;55.11;99735.92;101811;1313;74425;-23
2021/11/11 11:08:42;;;;;;;18.70;10.00;;;;;;;6.04;54.81;99733.81;101772;1312;61318;-23
2021/11/11 11:11:18;;;;;;;12.70;9.50;;;;;;;6.05;54.85;99727.36;101915;1314;61314;-23
2021/11/11 11:13:52;;;;;;;16.80;12.90;;;;;;;6.07;54.62;99728.48;102158;1314;75893;-23
2021/11/11 11:16:28;;;;;;;12.90;8.50;;;;;;;6.08;54.70;99722.72;101752;1316;76083;-22
2021/11/11 11:19:08;;;;;;;11.80;7.50;;;;;;;6.19;54.82;99721.66;101929;1314;73045;-24
2021/11/11 11:21:39;;;;;;;9.80;5.50;;;;;;;6.23;54.40;99716.58;101751;1315;61328;-23
2021/11/11 11:24:10;;;;;;;8.60;5.10;;;;;;;6.25;54.56;99710.96;101860;1312;61190;-23
2021/11/11 11:26:42;;;;;;;9.10;6.50;;;;;;;6.29;54.55;99715.63;102209;1314;74784;-24
2021/11/11 11:29:29;;;;;;;20.60;6.80;;;;;;;6.32;54.05;99712.84;102210;1319;75229;-23
2021/11/11 11:32:06;;;;;;;7.30;4.80;;;;;;;6.36;53.93;99710.94;101948;1315;74373;-23
2021/11/11 11:34:43;;;;;;;5.50;3.90;;;;;;;6.51;53.64;99708.91;102156;1314;61414;-23
2021/11/11 11:37:33;;;;;;;6.60;4.70;;;;;;;6.66;53.53;99712.59;102138;1313;61210;-23
2021/11/11 11:40:02;;;;;;;11.80;5.60;;;;;;;6.73;53.03;99709.11;102321;1313;75713;-23
2021/11/11 11:42:36;;;;;;;5.70;4.10;;;;;;;6.67;52.69;99706.34;102322;1312;76129;-23
2021/11/11 11:45:16;;;;;;;12.00;6.30;;;;;;;6.65;52.97;99703.14;102190;1314;74446;-23
2021/11/11 11:48:06;;;;;;;6.70;3.90;;;;;;;6.77;52.95;99688.89;101896;1313;61230;-23
2021/11/11 11:50:38;;;;;;;6.50;4.30;;;;;;;6.80;52.94;99685.81;102246;1313;62103;-23
2021/11/11 11:53:10;;;;;;;9.90;6.40;;;;;;;6.86;52.79;99690.77;101911;1313;75649;-23
2021/11/11 11:55:50;;;;;;;7.80;5.40;;;;;;;6.83;52.60;99691.48;102127;1314;75073;-22
2021/11/11 11:58:58;;;;;;;9.10;5.10;;;;;;;6.77;52.79;99685.47;102080;1315;72927;-23
2021/11/11 12:06:39;;;;;;;8.20;5.50;;;;;;;6.66;53.40;99669.98;102304;1313;74711;-22
2021/11/11 12:15:05;;;;;;;6.60;4.50;;;;;;;6.69;52.94;99655.30;102137;1319;61122;-22
2021/11/11 12:17:51;;;;;;;10.30;6.00;;;;;;;6.68;53.11;99659.34;102252;1313;61141;-22
2021/11/11 12:40:07;;;;;;;11.80;6.30;;;;;;;7.12;52.51;99650.16;101775;1314;71982;-22
2021/11/11 12:42:54;;;;;;;6.50;5.40;;;;;;;7.09;52.10;99652.38;101896;1314;61196;-22
2021/11/11 12:45:37;;;;;;;7.50;4.90;;;;;;;7.09;52.39;99654.15;101751;1316;61199;-22
2021/11/11 12:48:23;;;;;;;11.40;6.90;;;;;;;7.15;52.45;99659.31;101953;1317;75396;-22